»·PEaware :: N105CX PHOG-KVNY

N105CX :: PHOG-KVNY

FLIGHT INFORMATION

Flight Status: Arrived
Operator: Privately registered:
United States
More flights under this callsign
Pilot: Chris A. (85)
Aircraft: GULFSTREAM G-1159D GULFSTREAM 5
(GLF5)
More flights by this aircraft type
Origin: PHOG Kahului
United States
Destination: KVNY Van Nuys
United States
More flights between these airports :: More routes between these airports
Route: +SWEEP2 SWEEP AWAHI R577 ERROT/N0455F390 R577 ELKEY OHIGH FERN7
File this flight plan on PilotEdge
Remarks: PBN / A1B1C1D1S1S2 DOF / 180105 REG / N105CX EET / KZAK0042 KZLA0422 SEL / BEDG PER / C RMK / TCAS
Altitude:
(Current/Filed)
49,000ft
Speed:
(Current/Filed)
463kts
Departed: 05-Jan-18 12:22 PM
Arrived: 05-Jan-18 01:22 PM
Distance/Time
Traveled:
2155nm/0:59
Distance/Time
To Go:
Arrived

Flight Plot

Page will automatically refresh every two minutes.

Flight plan parsing failed; only flown route is shown


Map Options




Map Legend


Flown Route
Filed Route
Departure Airport
Arrival Airport
Navaid (VOR, NDB)
Fix

Horizontal Profiles

Position Reports

Time Latitude Longitude Heading Altitude Ground
Speed
05-Jan-18 12:27 31.905229 -125.552366 75 49260ft 481kts
05-Jan-18 12:28 31.941247 -125.400773 75 49262ft 481kts
05-Jan-18 12:29 31.977046 -125.249222 75 49262ft 480kts
05-Jan-18 12:30 32.012748 -125.097203 75 49264ft 480kts
05-Jan-18 12:31 32.048165 -124.945507 76 49265ft 480kts
05-Jan-18 12:32 32.077535 -124.819030 76 49266ft 480kts
05-Jan-18 12:33 32.118553 -124.641347 76 49268ft 480kts
05-Jan-18 12:34 32.153381 -124.489499 76 49270ft 479kts
05-Jan-18 12:35 32.182521 -124.362724 76 49285ft 478kts
05-Jan-18 12:36 32.216816 -124.211002 76 49292ft 478kts
05-Jan-18 12:37 32.255767 -124.033612 77 49295ft 479kts
05-Jan-18 12:38 32.282196 -123.905957 77 49295ft 478kts
05-Jan-18 12:39 32.313626 -123.753329 77 49295ft 478kts
05-Jan-18 12:40 32.345281 -123.600696 77 49295ft 478kts
05-Jan-18 12:41 32.376748 -123.447524 77 49295ft 478kts
05-Jan-18 12:42 32.408043 -123.294755 77 49296ft 478kts
05-Jan-18 12:43 32.438847 -123.141876 78 49297ft 478kts
05-Jan-18 12:44 32.469640 -122.988470 76 49296ft 478kts
05-Jan-18 12:45 32.504681 -122.836754 75 49296ft 478kts
05-Jan-18 12:46 32.539574 -122.684335 75 49292ft 478kts
05-Jan-18 12:47 32.574363 -122.532517 75 49296ft 478kts
05-Jan-18 12:48 32.609126 -122.380517 75 49290ft 478kts
05-Jan-18 12:49 32.643558 -122.227910 76 49292ft 478kts
05-Jan-18 12:50 32.679376 -122.076334 68 49284ft 479kts
05-Jan-18 12:51 32.752082 -121.944654 51 49283ft 479kts
05-Jan-18 12:52 32.834885 -121.819931 51 49286ft 481kts
05-Jan-18 12:53 32.917275 -121.694806 51 49291ft 480kts
05-Jan-18 12:54 32.999866 -121.569178 51 49288ft 481kts
05-Jan-18 12:55 33.081968 -121.443503 52 49293ft 481kts
05-Jan-18 12:56 33.164002 -121.317392 52 49288ft 482kts
05-Jan-18 12:57 33.246243 -121.190495 52 49284ft 482kts
05-Jan-18 12:58 33.328587 -121.062989 52 47960ft 485kts
05-Jan-18 12:59 33.411218 -120.934588 52 46164ft 494kts
05-Jan-18 13:00 33.496088 -120.802234 52 44274ft 506kts
05-Jan-18 13:01 33.582662 -120.666725 50 42278ft 519kts
05-Jan-18 13:02 33.671590 -120.527007 48 40276ft 532kts
05-Jan-18 13:03 33.761996 -120.384419 47 38279ft 541kts
05-Jan-18 13:04 33.852852 -120.240559 49 36069ft 540kts
05-Jan-18 13:05 33.943761 -120.096039 50 33665ft 540kts
05-Jan-18 13:06 34.032409 -119.954559 50 30900ft 515kts
05-Jan-18 13:07 34.109322 -119.831353 52 28170ft 492kts
05-Jan-18 13:08 34.189845 -119.701911 52 25135ft 471kts
05-Jan-18 13:09 34.267261 -119.577334 53 21860ft 457kts
05-Jan-18 13:10 34.331854 -119.472809 53 18890ft 425kts
05-Jan-18 13:11 34.399608 -119.362565 52 15483ft 390kts
05-Jan-18 13:12 34.423053 -119.255066 101 12366ft 358kts
05-Jan-18 13:13 34.402786 -119.144465 103 10079ft 314kts
05-Jan-18 13:14 34.385735 -119.046648 102 9034ft 284kts
05-Jan-18 13:15 34.369532 -118.953033 102 9024ft 284kts
05-Jan-18 13:16 34.368948 -118.860072 63 8997ft 286kts
05-Jan-18 13:17 34.405113 -118.776324 62 7628ft 271kts
05-Jan-18 13:18 34.439148 -118.697822 62 6236ft 256kts
05-Jan-18 13:19 34.469500 -118.627989 62 6058ft 223kts
05-Jan-18 13:20 34.499178 -118.561543 54 5921ft 226kts
05-Jan-18 13:21 34.480439 -118.509431 178 5076ft 200kts
05-Jan-18 13:22 34.427639 -118.510177 178 5060ft 177kts
05-Jan-18 13:23 34.379978 -118.506305 175 4927ft 167kts
05-Jan-18 13:24 34.336445 -118.501999 177 3940ft 149kts
05-Jan-18 13:25 34.297386 -118.499724 176 3208ft 149kts
05-Jan-18 13:26 34.256715 -118.494672 174 1972ft 139kts
05-Jan-18 13:27 34.219538 -118.491339 175 902ft 124kts
05-Jan-18 13:28 34.204887 -118.490334 202 810ft 9kts
05-Jan-18 13:29 34.203115 -118.491183 266 810ft 2kts
05-Jan-18 13:30 34.203346 -118.491298 40 810ft 0kts
05-Jan-18 13:31 34.203346 -118.491298 40 810ft 0kts
05-Jan-18 13:32 34.203346 -118.491298 40 810ft 0kts
05-Jan-18 13:33 34.203346 -118.491298 40 810ft 0kts
05-Jan-18 13:34 34.203346 -118.491298 40 810ft 0kts

Navigation Log

Ident Type
Flight plan parsing failed, navigation log unavailable